Airfield :







YOU CAN JOIN US ON...

 
LOGIN :

Register | Disclaimer

   EN    FR    IT 

 









Legend :    VFR   Marginal VFR   IFR   Intensive IFR   Very Intensive IFR
Visi :
Ceiling :
>= 8 km
>= 3000ft
5 to 8 km
1000 to 3000 ft
1500m to 5 km
500 to 1000 ft
800 to 1500m
200 to 500 ft
< 800m
< 200 ft
Symbols :   Thunderstorms  Fog  Heavy snow  Heavy precipitations  Wind > 20 kt






- Airport Elevation : 118 ft
- IATA code : YUL


CYUL - Montréal - Pierre-Elliott-Trudeau Int.

CURRENT METAR :
  • 200000Z 24004KT 15SM FEW230 07/01 A3003 RMK CI2 SLP173

EXPIRED METARs :
  • 192300Z 23004KT 15SM FEW180 SCT230 08/00 A3003 RMK AC1CI3 AC TR SLP172
  • 192200Z 24005KT 30SM FEW180 SCT240 08/01 A3003 RMK AC1CI2 CONTRAILS SLP171

TAF TAF CYUL
Valid from the 20 at 00:00 until the 21 at 00:00 UTC


192338Z 2000/2024 23007KT P6SM FEW180 SCT240
FM200300 VRB03KT P6SM SKC
FM200700 05006KT 6SM BR SKC
PROB30 2007/2014 1/2SM FG VV002
FM201400 07008KT P6SM FEW010 SCT170
FM201600 08010KT P6SM SCT200 RMK NXT FCST BY 200300Z
ATIS : ENG : +1 514-633-3037 FRA : +1 514-633-3034



MET'MAP, your aeronautical weather chart ! - Copyright ORBIFLY December 2007 - Disclaimer

ORBIFLY MET'MAP TEAM :

Programming & Development : Alexandra Zaïnal
Concept & Development : Baudouin d'Aumeries
Co-Development & Prog : Marc-Olivier Méhu
Technical & hardware support : Manuel Goepfert

Contact : metmap@orbifly.com




SOURCES & CREDITS :

   NOAA